Portada
METAR-TAF:

METAR-TAF

Aeropuertos :

Aeropuerto de Sabadell

Sabadell, España

latitud: 41-31N, longitud: 002-06E, altitud: 250 m

Observación

El informe se hizo hace 23 minutos, a las 20:00 UTC
Viento 3 kt del oeste-noroeste
Temperatura 9°C
Humedad 93%
Presión 1018 hPa
Visibilidad 10 km o más
sin nubes por debajo de 1500 m y sin presencia de cumulonimbus.

METAR: LELL 292000Z AUTO 29003KT CAVOK 09/08 Q1018

Hora: 21:23 (20:23 UTC)

Pronóstico

El informe se hizo hace 6 horas y 23 minutos, a las 14:00 UTC
Pronóstico válido del 29 a las 15 UTC al 30 a las 15 UTC
Viento 5 kt con dirección variable
Visibilidad 10 km o más
Escasas nubes a una altura de 3000 ft
Cielo nuboso a una altura de 5000 ft

TAF: LELL 291400Z 2915/3015 VRB05KT 9999 FEW030 BKN050 TX16/3013Z TN07/3006Z

Observaciones y pronósticos meteorológicos de más de 4000 aeropuertos (mensajes METAR y TAF).

Los puntos amarillos y rojos representan las estaciones disponibles.

Ponga el ratón en el punto deseado para ver el nombre de la estación.

Haga clic para ver las observaciones y los pronósticos meteorológicos.

Para cambiar el mapa : haga clic en los botones verdes con una cruz de color negro para hacer un zoom, en el botón verde con un guión para alejar o en las flechas verdes para mapas adyacentes.


METAR-TAF: